createdAt,value
2022-09-18T07:18:42.268Z,7.45
2022-09-18T07:21:11.035Z,7.15
2022-09-18T07:23:39.660Z,7.87
2022-09-18T07:26:06.508Z,7.50
2022-09-18T07:28:34.398Z,7.84
2022-09-18T07:31:13.607Z,7.67
2022-09-18T07:33:42.410Z,7.86
2022-09-18T07:36:14.996Z,7.74
2022-09-18T07:38:43.101Z,7.88
2022-09-18T07:41:11.252Z,7.91
2022-09-18T07:43:42.787Z,7.64
2022-09-18T07:46:10.157Z,7.62
2022-09-18T07:48:38.798Z,7.56
2022-09-18T07:51:21.958Z,7.65
2022-09-18T07:53:53.085Z,7.53
2022-09-18T07:56:29.284Z,7.53
2022-09-18T07:58:56.259Z,7.38
2022-09-18T08:01:27.337Z,7.69
2022-09-18T08:03:57.058Z,7.67
2022-09-18T08:06:36.216Z,7.73
2022-09-18T08:09:25.350Z,7.80
2022-09-18T08:12:15.265Z,7.52
2022-09-18T08:14:55.606Z,7.63
2022-09-18T08:17:34.396Z,7.66
2022-09-18T08:20:19.723Z,7.49
2022-09-18T08:22:52.275Z,7.59
2022-09-18T08:25:23.261Z,7.71
2022-09-18T08:27:50.479Z,7.72
2022-09-18T08:30:27.193Z,7.61
2022-09-18T08:33:05.071Z,7.51
2022-09-18T08:35:32.349Z,7.37
2022-09-18T08:38:07.975Z,7.48
2022-09-18T08:41:06.481Z,7.70
2022-09-18T08:43:42.552Z,7.62
2022-09-18T08:46:15.177Z,7.43
2022-09-18T08:49:04.754Z,7.81
2022-09-18T08:51:37.590Z,7.96
2022-09-18T08:54:53.571Z,7.88
2022-09-18T08:57:37.588Z,7.87
2022-09-18T09:00:31.430Z,8.06
2022-09-18T09:03:52.419Z,8.11
2022-09-18T09:06:41.884Z,8.12
2022-09-18T09:09:26.555Z,8.15
2022-09-18T09:12:07.298Z,8.00
2022-09-18T09:14:56.164Z,8.14
2022-09-18T09:17:37.602Z,8.19
2022-09-18T09:20:21.401Z,8.25
2022-09-18T09:23:07.800Z,8.02
2022-09-18T09:25:47.867Z,8.12
2022-09-18T09:28:46.563Z,7.82
2022-09-18T09:31:39.456Z,7.94
2022-09-18T09:34:37.070Z,7.84
2022-09-18T09:37:23.983Z,7.99
2022-09-18T09:40:00.007Z,8.14
2022-09-18T09:42:38.927Z,7.94
2022-09-18T09:45:16.363Z,7.96
2022-09-18T09:47:51.092Z,8.13
2022-09-18T09:50:30.133Z,8.18
2022-09-18T09:53:01.905Z,8.16
2022-09-18T09:55:42.368Z,8.19
2022-09-18T09:58:21.817Z,8.21
2022-09-18T10:01:04.891Z,8.09
2022-09-18T10:03:40.986Z,8.12
2022-09-18T10:06:27.513Z,8.15
2022-09-18T10:09:10.148Z,8.16
2022-09-18T10:11:40.959Z,8.35
2022-09-18T10:14:16.763Z,8.37
2022-09-18T10:16:48.705Z,8.17
2022-09-18T10:19:21.502Z,8.33
2022-09-18T10:21:52.872Z,8.35
2022-09-18T10:24:30.019Z,8.37
2022-09-18T10:27:06.081Z,8.24
2022-09-18T10:29:35.720Z,8.08
2022-09-18T10:32:04.478Z,8.26
2022-09-18T10:34:45.702Z,8.35
2022-09-18T10:37:18.655Z,8.43
2022-09-18T10:39:57.576Z,8.36
2022-09-18T10:42:27.326Z,8.34
2022-09-18T10:45:05.027Z,8.25
2022-09-18T10:47:36.793Z,8.23
2022-09-18T10:50:06.485Z,8.40
2022-09-18T10:52:46.508Z,8.28
2022-09-18T10:55:24.854Z,8.23
2022-09-18T10:58:06.157Z,8.45
2022-09-18T11:00:38.354Z,8.48
2022-09-18T11:03:37.952Z,8.55
2022-09-18T11:06:09.504Z,8.47
2022-09-18T11:08:42.632Z,8.58
2022-09-18T11:11:29.077Z,8.59
2022-09-18T11:14:04.375Z,8.18
2022-09-18T11:16:43.762Z,8.38
2022-09-18T11:19:12.560Z,8.55
2022-09-18T11:22:04.310Z,8.55
2022-09-18T11:24:38.562Z,8.51
2022-09-18T11:27:22.143Z,8.58
2022-09-18T11:29:51.727Z,8.03
2022-09-18T11:32:25.378Z,8.51
2022-09-18T11:35:02.436Z,8.50
2022-09-18T11:37:40.004Z,8.56
2022-09-18T11:40:24.370Z,8.55
2022-09-18T11:42:54.118Z,8.51
2022-09-18T11:45:45.808Z,8.69
2022-09-18T11:48:25.260Z,8.82
2022-09-18T11:50:56.330Z,8.95
2022-09-18T11:53:27.838Z,9.01
2022-09-18T11:56:02.506Z,9.37
2022-09-18T11:58:36.995Z,9.02
2022-09-18T12:01:34.865Z,9.31
2022-09-18T12:04:17.616Z,9.37
2022-09-18T12:07:02.812Z,9.41
2022-09-18T12:09:42.731Z,9.17
2022-09-18T12:12:21.830Z,8.95
2022-09-18T12:15:09.541Z,9.13
2022-09-18T12:17:45.183Z,9.07
2022-09-18T12:20:40.257Z,9.09
2022-09-18T12:23:14.898Z,9.12
2022-09-18T12:26:01.319Z,9.11
2022-09-18T12:28:57.747Z,9.01
2022-09-18T12:31:55.447Z,8.96
2022-09-18T12:34:31.072Z,9.08
2022-09-18T12:37:09.841Z,8.99
2022-09-18T12:39:43.272Z,9.07
2022-09-18T12:42:51.803Z,9.02
2022-09-18T12:45:49.473Z,9.10
2022-09-18T12:48:44.309Z,9.17
2022-09-18T12:51:41.611Z,9.17
2022-09-18T12:54:11.138Z,9.08
2022-09-18T12:56:54.715Z,9.15
2022-09-18T12:59:52.388Z,9.13
2022-09-18T13:02:41.202Z,9.17
2022-09-18T13:05:37.380Z,9.07
2022-09-18T13:08:11.199Z,8.81
2022-09-18T13:10:42.933Z,8.96
2022-09-18T13:13:21.865Z,8.87
2022-09-18T13:16:03.547Z,8.58
2022-09-18T13:18:59.376Z,8.80
2022-09-18T13:21:31.108Z,8.53
2022-09-18T13:23:59.599Z,8.81
2022-09-18T13:26:30.753Z,8.89
2022-09-18T13:28:57.510Z,8.85
2022-09-18T13:31:30.443Z,8.85
2022-09-18T13:34:06.014Z,8.80
2022-09-18T13:36:38.545Z,8.96
2022-09-18T13:39:15.421Z,8.84
2022-09-18T13:41:49.227Z,8.89
2022-09-18T13:44:23.427Z,8.71
2022-09-18T13:46:53.234Z,8.77
2022-09-18T13:49:30.406Z,8.51
2022-09-18T13:52:35.062Z,8.69
2022-09-18T13:55:13.977Z,8.72
2022-09-18T13:57:41.855Z,8.71
2022-09-18T14:00:20.632Z,8.71
2022-09-18T14:03:11.367Z,8.53
2022-09-18T14:05:39.775Z,8.71
2022-09-18T14:08:22.299Z,8.63
2022-09-18T14:11:05.436Z,8.79
2022-09-18T14:13:39.380Z,8.76
2022-09-18T14:16:25.542Z,8.74
2022-09-18T14:19:02.879Z,8.69
2022-09-18T14:21:39.927Z,8.87
2022-09-18T14:24:18.530Z,8.78
2022-09-18T14:26:45.221Z,8.79
2022-09-18T14:29:14.928Z,8.78
2022-09-18T14:31:44.825Z,8.83
2022-09-18T14:34:32.621Z,8.81
2022-09-18T14:37:02.243Z,8.84
2022-09-18T14:39:36.034Z,8.79
2022-09-18T14:42:41.272Z,8.80
2022-09-18T14:45:11.011Z,8.78
2022-09-18T14:47:38.337Z,8.72
2022-09-18T14:50:31.405Z,8.77
2022-09-18T14:53:01.118Z,8.52
2022-09-18T14:55:40.732Z,8.77
2022-09-18T14:58:12.660Z,8.58
2022-09-18T15:00:39.539Z,8.81
2022-09-18T15:03:20.921Z,8.58
2022-09-18T15:05:51.233Z,8.79
2022-09-18T15:08:26.342Z,8.82
2022-09-18T15:10:53.583Z,8.74
2022-09-18T15:13:22.131Z,8.75
2022-09-18T15:16:01.486Z,8.72
2022-09-18T15:18:29.766Z,8.62
2022-09-18T15:20:59.313Z,8.56
2022-09-18T15:23:33.009Z,8.52
2022-09-18T15:26:02.738Z,8.29
2022-09-18T15:28:33.487Z,8.46
2022-09-18T15:31:08.389Z,8.48
2022-09-18T15:33:37.823Z,8.42
2022-09-18T15:36:05.239Z,8.30
2022-09-18T15:38:52.744Z,8.57
2022-09-18T15:41:29.369Z,8.42
2022-09-18T15:43:56.175Z,8.30
2022-09-18T15:46:31.833Z,8.53
2022-09-18T15:49:00.973Z,8.52
2022-09-18T15:51:35.889Z,8.36
2022-09-18T15:54:09.276Z,8.48
2022-09-18T15:56:39.296Z,8.13
2022-09-18T15:59:22.571Z,8.24
2022-09-18T16:01:49.420Z,8.32
2022-09-18T16:04:28.576Z,8.40
2022-09-18T16:07:06.546Z,8.32
2022-09-18T16:09:40.337Z,8.11
2022-09-18T16:12:31.333Z,8.20
2022-09-18T16:15:21.055Z,8.18
2022-09-18T16:17:50.716Z,8.14
2022-09-18T16:20:34.581Z,8.12
2022-09-18T16:23:33.798Z,8.09
2022-09-18T16:26:13.466Z,8.00
2022-09-18T16:28:44.070Z,7.88
2022-09-18T16:31:13.103Z,8.07
2022-09-18T16:33:50.664Z,8.06
2022-09-18T16:36:33.151Z,8.01
2022-09-18T16:39:02.318Z,7.56
2022-09-18T16:41:30.439Z,7.79
2022-09-18T16:43:57.367Z,7.97
2022-09-18T16:46:50.760Z,7.88
2022-09-18T16:49:21.572Z,7.77
2022-09-18T16:51:48.623Z,7.94
2022-09-18T16:54:15.335Z,7.88
2022-09-18T16:56:48.915Z,7.51
2022-09-18T16:59:16.027Z,7.74
2022-09-18T17:02:03.370Z,7.65
2022-09-18T17:04:31.537Z,7.92
2022-09-18T17:06:58.225Z,7.91
2022-09-18T17:09:25.025Z,7.55
2022-09-18T17:11:52.882Z,7.86
2022-09-18T17:14:20.068Z,7.60
2022-09-18T17:16:47.143Z,7.59
2022-09-18T17:19:14.559Z,7.53
2022-09-18T17:21:41.624Z,7.64
2022-09-18T17:24:09.055Z,7.44
2022-09-18T17:26:36.711Z,7.78
2022-09-18T17:29:03.705Z,7.79
2022-09-18T17:31:30.431Z,7.71
2022-09-18T17:33:57.104Z,7.65
2022-09-18T17:36:23.779Z,7.48
2022-09-18T17:38:50.497Z,7.33
2022-09-18T17:41:19.391Z,6.99
2022-09-18T17:43:53.087Z,7.04
2022-09-18T17:46:20.409Z,6.71
2022-09-18T17:48:47.124Z,6.72
2022-09-18T17:51:18.549Z,6.32
2022-09-18T17:53:47.865Z,6.36
2022-09-18T17:56:20.039Z,6.51
2022-09-18T17:58:54.185Z,6.66
2022-09-18T18:01:21.036Z,6.30
2022-09-18T18:03:48.506Z,6.68
2022-09-18T18:06:21.131Z,6.69
2022-09-18T18:08:48.266Z,6.42
2022-09-18T18:11:16.746Z,6.43
2022-09-18T18:13:44.936Z,6.30
2022-09-18T18:16:17.224Z,6.55
2022-09-18T18:18:43.928Z,6.52
2022-09-18T18:21:11.114Z,6.53
2022-09-18T18:23:38.496Z,6.46
2022-09-18T18:26:08.630Z,6.42
2022-09-18T18:28:37.474Z,6.46
2022-09-18T18:31:11.427Z,6.54
2022-09-18T18:33:39.810Z,6.72
2022-09-18T18:36:16.953Z,6.74
2022-09-18T18:38:48.079Z,6.63
2022-09-18T18:41:16.163Z,6.62
2022-09-18T18:43:42.888Z,6.55
2022-09-18T18:46:13.916Z,6.06
2022-09-18T18:48:41.852Z,6.47
2022-09-18T18:51:12.307Z,6.70
2022-09-18T18:53:38.996Z,6.35
2022-09-18T18:56:11.832Z,6.38
2022-09-18T18:58:39.115Z,6.60
2022-09-18T19:01:09.197Z,6.57
2022-09-18T19:03:41.895Z,6.58
2022-09-18T19:06:09.911Z,6.58
2022-09-18T19:08:37.303Z,6.53
2022-09-18T19:11:06.715Z,6.79
2022-09-18T19:13:41.361Z,6.69
2022-09-18T19:16:08.298Z,6.76
2022-09-18T19:18:35.698Z,6.23
2022-09-18T19:21:02.375Z,6.57
2022-09-18T19:23:29.068Z,6.55
2022-09-18T19:25:58.096Z,6.35
2022-09-18T19:28:24.747Z,6.07
2022-09-18T19:30:53.730Z,5.97
2022-09-18T19:33:22.998Z,6.18
2022-09-18T19:35:50.328Z,5.85
2022-09-18T19:38:20.375Z,5.70
2022-09-18T19:40:50.667Z,5.75
2022-09-18T19:43:31.280Z,5.87
2022-09-18T19:45:58.526Z,5.87
2022-09-18T19:48:27.075Z,5.87
2022-09-18T19:50:54.046Z,5.70
2022-09-18T19:53:20.942Z,5.93
2022-09-18T19:55:47.709Z,5.91
2022-09-18T19:58:16.394Z,5.93
2022-09-18T20:00:46.648Z,5.83
2022-09-18T20:03:14.575Z,5.77
2022-09-18T20:05:43.019Z,5.70
2022-09-18T20:08:10.120Z,5.85
2022-09-18T20:10:39.082Z,5.75
2022-09-18T20:13:10.002Z,5.76
2022-09-18T20:15:36.627Z,5.71
2022-09-18T20:18:05.690Z,5.63
2022-09-18T20:20:35.013Z,5.79
2022-09-18T20:23:01.590Z,5.98
2022-09-18T20:25:28.392Z,5.60
2022-09-18T20:27:54.986Z,5.93
2022-09-18T20:30:21.741Z,6.03
2022-09-18T20:32:48.847Z,5.97
2022-09-18T20:35:15.576Z,5.99
2022-09-18T20:37:42.223Z,5.64
2022-09-18T20:40:13.371Z,5.72
2022-09-18T20:42:40.107Z,5.58
2022-09-18T20:45:07.356Z,5.67
2022-09-18T20:47:36.555Z,5.79
2022-09-18T20:50:08.903Z,5.63
2022-09-18T20:52:43.060Z,5.69
2022-09-18T20:55:15.419Z,5.74
2022-09-18T20:57:44.490Z,5.64
2022-09-18T21:00:12.591Z,5.54
2022-09-18T21:02:39.970Z,5.69
2022-09-18T21:05:11.500Z,5.56
2022-09-18T21:07:38.166Z,5.49
2022-09-18T21:10:06.344Z,5.57
2022-09-18T21:12:38.297Z,5.39
2022-09-18T21:15:11.775Z,5.49
2022-09-18T21:17:38.584Z,5.11
2022-09-18T21:20:06.475Z,5.28
2022-09-18T21:22:33.328Z,5.53
2022-09-18T21:24:59.956Z,5.17
2022-09-18T21:27:26.987Z,5.25
2022-09-18T21:29:57.808Z,5.42
2022-09-18T21:32:24.374Z,5.52
2022-09-18T21:34:52.752Z,5.45
2022-09-18T21:37:19.491Z,5.72
2022-09-18T21:39:46.213Z,5.66
2022-09-18T21:42:12.839Z,5.67
2022-09-18T21:44:39.667Z,5.54
2022-09-18T21:47:10.690Z,5.43
2022-09-18T21:49:37.313Z,5.03
2022-09-18T21:52:06.799Z,5.41
2022-09-18T21:54:33.907Z,5.54
2022-09-18T21:57:01.384Z,5.56
2022-09-18T21:59:35.445Z,5.47
2022-09-18T22:02:06.114Z,5.42
2022-09-18T22:04:33.873Z,5.38
2022-09-18T22:07:01.801Z,5.40
2022-09-18T22:09:35.907Z,5.40
2022-09-18T22:12:02.827Z,5.30
2022-09-18T22:14:32.385Z,5.14
2022-09-18T22:17:01.393Z,5.19
2022-09-18T22:19:29.256Z,5.07
2022-09-18T22:21:56.146Z,5.36
2022-09-18T22:24:24.985Z,5.13
2022-09-18T22:26:55.260Z,4.99
2022-09-18T22:29:25.065Z,5.30
2022-09-18T22:31:52.173Z,5.10
2022-09-18T22:34:21.424Z,5.08
2022-09-18T22:36:48.543Z,5.29
2022-09-18T22:39:16.733Z,4.97
2022-09-18T22:41:44.178Z,5.26
2022-09-18T22:44:11.809Z,4.95
2022-09-18T22:46:40.447Z,4.95
2022-09-18T22:49:08.789Z,5.20
2022-09-18T22:51:35.426Z,5.19
2022-09-18T22:54:07.449Z,5.16
2022-09-18T22:56:38.770Z,5.23
2022-09-18T22:59:05.696Z,5.13
2022-09-18T23:01:33.861Z,5.02
2022-09-18T23:04:03.679Z,5.05
2022-09-18T23:06:33.314Z,4.77
2022-09-18T23:09:01.042Z,5.08
2022-09-18T23:11:30.208Z,4.94
2022-09-18T23:13:59.571Z,5.19
2022-09-18T23:16:28.067Z,4.88
2022-09-18T23:18:58.436Z,5.14
2022-09-18T23:21:27.098Z,5.14
2022-09-18T23:23:56.240Z,4.72
2022-09-18T23:26:28.881Z,5.14
2022-09-18T23:28:59.986Z,4.96
2022-09-18T23:31:32.205Z,4.92
2022-09-18T23:34:01.625Z,5.03
2022-09-18T23:36:35.749Z,5.08
2022-09-18T23:39:06.590Z,5.12
2022-09-18T23:41:34.432Z,4.91
2022-09-18T23:44:02.497Z,5.04
2022-09-18T23:46:29.464Z,4.75
2022-09-18T23:48:56.097Z,4.72
2022-09-18T23:51:28.134Z,5.08
2022-09-18T23:53:56.848Z,4.83
2022-09-18T23:56:24.111Z,4.81
2022-09-18T23:59:01.208Z,4.86
